Time;durP1;ratioP1;P1;durP2;ratioP2;P2;SDS_P1;SDS_P2;PMS_P1;PMS_P2;Temp;Humidity;BMP_temperature;BMP_pressure;BME280_temperature;BME280_humidity;BME280_pressure;Samples;Min_cycle;Max_cycle;Signal;HPM_P1;HPM_P2
2021/12/31 00:02:17;;;;;;;8.18;1.73;;;;;;;19.09;58.84;101669.34;5015366;28;20052;-72
2021/12/31 00:04:43;;;;;;;9.70;1.80;;;;;;;19.09;58.10;101679.97;5033110;28;20052;-72
2021/12/31 00:07:09;;;;;;;9.02;1.85;;;;;;;19.04;58.58;101678.66;5050387;28;20112;-72
2021/12/31 00:09:35;;;;;;;8.18;1.92;;;;;;;19.04;58.47;101671.50;5032773;28;20060;-72
2021/12/31 00:12:02;;;;;;;8.80;1.98;;;;;;;19.05;58.33;101672.34;5050160;28;20047;-71
2021/12/31 00:14:28;;;;;;;7.80;1.80;;;;;;;19.05;58.82;101678.50;5050326;28;20497;-72
2021/12/31 00:16:53;;;;;;;6.13;1.58;;;;;;;19.03;58.47;101677.81;5032964;28;20053;-73
2021/12/31 00:19:19;;;;;;;9.43;1.83;;;;;;;19.05;58.00;101680.31;5015927;28;20033;-72
2021/12/31 00:21:48;;;;;;;11.43;2.20;;;;;;;19.01;57.97;101668.25;5032636;28;20118;-72
2021/12/31 00:24:13;;;;;;;8.82;1.75;;;;;;;19.00;58.79;101672.72;5031981;28;20037;-72
2021/12/31 00:26:39;;;;;;;9.55;2.03;;;;;;;19.00;58.57;101670.06;5022701;28;20167;-72
2021/12/31 00:29:04;;;;;;;7.13;2.08;;;;;;;18.97;58.54;101670.31;5048244;28;20080;-71
2021/12/31 00:31:29;;;;;;;8.60;1.75;;;;;;;18.98;58.69;101674.66;5049943;28;20056;-72
2021/12/31 00:33:55;;;;;;;9.73;1.83;;;;;;;18.97;57.99;101672.97;5032176;28;20501;-72
2021/12/31 00:36:20;;;;;;;12.48;2.13;;;;;;;18.99;58.60;101680.81;5031784;28;20048;-72
2021/12/31 00:38:48;;;;;;;6.50;1.98;;;;;;;18.96;58.00;101671.28;5050019;28;20408;-72
2021/12/31 00:41:14;;;;;;;6.75;1.55;;;;;;;18.97;57.74;101678.28;5049418;28;20626;-72
2021/12/31 00:43:39;;;;;;;10.88;1.98;;;;;;;18.96;57.62;101671.28;5049951;28;20060;-72
2021/12/31 00:46:04;;;;;;;8.18;1.60;;;;;;;18.97;58.20;101667.66;5049032;28;20041;-72
2021/12/31 00:48:30;;;;;;;9.20;1.77;;;;;;;18.95;57.80;101664.25;5049818;28;20056;-72
2021/12/31 00:50:56;;;;;;;5.90;1.55;;;;;;;18.92;58.33;101670.66;5031977;28;20044;-72
2021/12/31 00:53:22;;;;;;;9.85;1.73;;;;;;;18.94;58.41;101675.88;5049324;28;20045;-72
2021/12/31 00:55:48;;;;;;;5.82;1.58;;;;;;;18.89;58.45;101676.22;5032000;28;20191;-73
2021/12/31 00:58:13;;;;;;;9.15;1.83;;;;;;;18.88;58.31;101666.56;5031447;28;20049;-73
2021/12/31 01:00:38;;;;;;;7.25;2.40;;;;;;;18.85;58.28;101669.47;5021487;28;20053;-73
2021/12/31 01:03:04;;;;;;;7.55;1.70;;;;;;;18.85;58.35;101680.09;5009546;28;20069;-72
2021/12/31 01:05:29;;;;;;;7.18;1.70;;;;;;;18.83;57.80;101670.53;5009876;28;20398;-72
2021/12/31 01:07:55;;;;;;;6.63;1.70;;;;;;;18.86;58.32;101671.16;5009841;28;20049;-72
2021/12/31 01:10:23;;;;;;;7.47;1.70;;;;;;;18.85;57.81;101676.59;5024562;28;20077;-72
2021/12/31 01:12:50;;;;;;;5.63;1.40;;;;;;;18.85;58.30;101673.94;5008620;28;20037;-72
2021/12/31 01:15:50;;;;;;;7.07;1.48;;;;;;;18.84;57.57;101674.91;5009344;28;20378;-72
2021/12/31 01:20:35;;;;;;;8.45;1.60;;;;;;;18.82;57.82;101668.84;5029369;28;20034;-72
2021/12/31 01:23:01;;;;;;;7.32;1.42;;;;;;;18.79;57.67;101674.41;5028910;28;20477;-70
2021/12/31 01:25:26;;;;;;;7.53;1.42;;;;;;;18.76;57.74;101667.53;5029256;28;20069;-72
2021/12/31 01:27:52;;;;;;;5.45;1.08;;;;;;;18.76;58.17;101685.28;5029516;28;20042;-72
2021/12/31 01:30:17;;;;;;;8.90;2.00;;;;;;;18.75;57.69;101673.81;5019396;28;20077;-72
2021/12/31 01:32:43;;;;;;;8.65;1.88;;;;;;;18.79;58.13;101669.09;5010072;28;20037;-72
2021/12/31 01:35:09;;;;;;;6.45;1.55;;;;;;;18.79;57.30;101677.06;5023931;28;20406;-71
2021/12/31 01:37:34;;;;;;;5.57;1.38;;;;;;;18.80;57.34;101681.41;5029146;28;20068;-72
2021/12/31 01:40:00;;;;;;;7.30;1.50;;;;;;;18.78;57.77;101675.38;5028870;28;20042;-72
2021/12/31 01:42:30;;;;;;;6.28;1.70;;;;;;;18.77;57.46;101676.34;5028671;28;20497;-72
2021/12/31 01:45:01;;;;;;;6.40;1.77;;;;;;;18.76;57.34;101675.50;5028955;28;20049;-72
2021/12/31 01:47:35;;;;;;;6.63;1.85;;;;;;;18.72;57.59;101679.34;5011475;28;20119;-72
2021/12/31 01:50:06;;;;;;;9.38;1.55;;;;;;;18.70;57.50;101676.78;5027452;28;20554;-72
2021/12/31 01:52:32;;;;;;;5.35;1.48;;;;;;;18.73;58.07;101691.69;5011451;28;20038;-73
2021/12/31 01:54:58;;;;;;;6.05;1.48;;;;;;;18.76;57.86;101686.13;5027618;28;20080;-72
2021/12/31 01:57:23;;;;;;;7.53;1.75;;;;;;;18.74;57.34;101688.09;5010613;28;20405;-72
2021/12/31 01:59:48;;;;;;;6.80;1.38;;;;;;;18.73;57.68;101668.59;5032807;28;20048;-72
2021/12/31 02:02:15;;;;;;;6.63;1.60;;;;;;;18.75;57.37;101679.13;5030394;28;20044;-72
2021/12/31 02:04:41;;;;;;;4.82;1.48;;;;;;;18.74;58.01;101685.44;5030550;28;20049;-72
2021/12/31 02:07:06;;;;;;;6.38;1.33;;;;;;;18.71;57.69;101675.84;5048170;28;20041;-72
2021/12/31 02:09:37;;;;;;;5.63;1.42;;;;;;;18.70;57.50;101671.47;5048313;28;20033;-72
2021/12/31 02:12:02;;;;;;;5.88;1.58;;;;;;;18.70;57.63;101690.06;5030894;28;20037;-71
2021/12/31 02:14:28;;;;;;;5.78;1.17;;;;;;;18.70;57.77;101698.03;5048064;28;20045;-72
2021/12/31 02:16:54;;;;;;;7.70;1.60;;;;;;;18.71;57.71;101686.47;5030491;28;20068;-72
2021/12/31 02:19:27;;;;;;;5.53;1.23;;;;;;;18.68;57.73;101692.03;5029761;28;20114;-72
2021/12/31 02:21:53;;;;;;;6.32;1.38;;;;;;;18.67;57.30;101687.66;5048231;28;20693;-72
2021/12/31 02:24:21;;;;;;;3.83;1.17;;;;;;;18.69;57.45;101696.38;5013500;28;20041;-72
2021/12/31 02:26:46;;;;;;;5.32;1.48;;;;;;;18.69;57.98;101698.19;5048131;28;20048;-72
2021/12/31 02:29:12;;;;;;;5.88;1.88;;;;;;;18.72;57.42;101695.28;5046837;28;20041;-72
2021/12/31 02:31:37;;;;;;;4.72;1.33;;;;;;;18.73;57.46;101697.84;5047143;28;20033;-72
2021/12/31 02:34:02;;;;;;;4.57;1.40;;;;;;;18.72;57.42;101695.28;5047391;28;20512;-71
2021/12/31 02:36:28;;;;;;;7.18;1.77;;;;;;;18.71;57.08;101694.44;5047754;28;20534;-72
2021/12/31 02:38:53;;;;;;;6.32;1.40;;;;;;;18.71;57.29;101698.91;5030293;28;20099;-72
2021/12/31 02:41:19;;;;;;;5.68;1.40;;;;;;;18.69;56.98;101692.88;5047602;28;20618;-72
2021/12/31 02:43:44;;;;;;;5.43;1.70;;;;;;;18.67;57.77;101706.25;5013764;28;20127;-72
2021/12/31 02:46:10;;;;;;;5.63;1.30;;;;;;;18.67;57.38;101703.59;5029924;28;20041;-72
2021/12/31 02:48:35;;;;;;;7.30;1.60;;;;;;;18.67;57.58;101700.94;5030143;28;20451;-72
2021/12/31 02:51:02;;;;;;;4.43;1.52;;;;;;;18.65;57.64;101697.56;5029833;28;20049;-70
2021/12/31 02:53:50;;;;;;;5.13;1.40;;;;;;;18.63;57.46;101702.16;5030439;28;20401;-72
2021/12/31 02:56:18;;;;;;;4.60;1.38;;;;;;;18.66;57.39;101683.31;5030230;28;20061;-73
2021/12/31 02:58:44;;;;;;;4.80;1.20;;;;;;;18.67;57.15;101687.66;5030469;28;20033;-72
2021/12/31 03:01:09;;;;;;;4.43;1.35;;;;;;;18.64;57.48;101681.72;5028974;28;20128;-72
2021/12/31 03:03:35;;;;;;;6.28;1.45;;;;;;;18.62;57.44;101673.06;5047650;28;20029;-72
2021/12/31 03:06:01;;;;;;;4.88;1.40;;;;;;;18.63;57.58;101680.06;5029099;28;20037;-69
2021/12/31 03:08:30;;;;;;;4.15;1.40;;;;;;;18.63;57.58;101672.06;5047611;28;20055;-72
2021/12/31 03:10:56;;;;;;;6.00;1.50;;;;;;;18.63;57.01;101653.47;5029784;28;20741;-72
2021/12/31 03:13:22;;;;;;;3.70;1.27;;;;;;;18.65;57.44;101651.56;5029277;28;20041;-72
2021/12/31 03:15:47;;;;;;;3.38;1.30;;;;;;;18.65;57.50;101646.25;5029807;28;20128;-72
2021/12/31 03:18:13;;;;;;;5.80;1.48;;;;;;;18.63;57.13;101648.16;4996405;28;20045;-72
2021/12/31 03:20:43;;;;;;;4.97;1.50;;;;;;;18.62;57.05;101642.00;5029859;28;20421;-72
2021/12/31 03:23:09;;;;;;;6.32;1.30;;;;;;;18.62;57.30;101651.78;5048518;28;20048;-71
2021/12/31 03:25:34;;;;;;;5.28;1.30;;;;;;;18.61;57.15;101658.88;5033517;28;20408;-72
2021/12/31 03:28:00;;;;;;;5.00;1.25;;;;;;;18.62;56.96;101647.31;5051430;28;20120;-72
2021/12/31 03:30:26;;;;;;;4.10;1.20;;;;;;;18.62;57.15;101651.78;5050366;28;20052;-72
2021/12/31 03:32:52;;;;;;;6.90;1.67;;;;;;;18.61;57.57;101640.28;5051309;28;20477;-72
2021/12/31 03:35:17;;;;;;;5.32;1.10;;;;;;;18.62;57.26;101647.31;5033054;28;20087;-72
2021/12/31 03:37:43;;;;;;;5.72;1.38;;;;;;;18.59;57.04;101636.94;5051347;28;20029;-72
2021/12/31 03:40:09;;;;;;;3.55;1.33;;;;;;;18.61;57.61;101645.59;5016434;28;20059;-72
2021/12/31 03:42:36;;;;;;;3.80;1.17;;;;;;;18.59;57.61;101647.56;5051156;28;20127;-72
2021/12/31 03:45:02;;;;;;;5.20;1.20;;;;;;;18.58;57.34;101645.84;5050689;28;20041;-71
2021/12/31 03:47:27;;;;;;;6.25;1.45;;;;;;;18.55;57.70;101635.47;5050983;28;20060;-72
2021/12/31 03:49:52;;;;;;;3.80;1.10;;;;;;;18.58;57.01;101635.22;5033069;28;20037;-72
2021/12/31 03:52:18;;;;;;;4.15;1.25;;;;;;;18.55;57.06;101635.47;5015365;28;20076;-72
2021/12/31 03:54:43;;;;;;;3.60;1.20;;;;;;;18.54;57.27;101643.56;5029844;28;20124;-72
2021/12/31 03:57:09;;;;;;;3.60;1.35;;;;;;;18.51;57.05;101644.63;5030712;28;20394;-71
2021/12/31 03:59:34;;;;;;;5.25;1.40;;;;;;;18.54;57.42;101644.41;5032680;28;20741;-72
2021/12/31 04:02:00;;;;;;;4.15;1.10;;;;;;;18.55;57.01;101650.56;5033131;28;20037;-72
2021/12/31 04:04:25;;;;;;;3.05;1.10;;;;;;;18.50;57.55;101643.78;5050478;28;20049;-72
2021/12/31 04:06:51;;;;;;;5.80;1.40;;;;;;;18.48;57.74;101643.06;5050818;28;20044;-72
2021/12/31 04:09:16;;;;;;;5.45;1.38;;;;;;;18.50;57.19;101646.44;5050100;28;20056;-72
2021/12/31 04:11:42;;;;;;;3.75;1.10;;;;;;;18.52;57.24;101637.50;5032666;28;20047;-72
2021/12/31 04:14:07;;;;;;;5.53;1.10;;;;;;;18.54;57.32;101635.59;5032421;28;20063;-71
2021/12/31 04:16:33;;;;;;;3.80;0.90;;;;;;;18.52;57.48;101634.84;5050828;28;20499;-72
2021/12/31 04:18:58;;;;;;;3.67;1.20;;;;;;;18.54;57.26;101633.78;5032660;28;20219;-72
2021/12/31 04:21:24;;;;;;;3.10;1.08;;;;;;;18.49;57.39;101622.66;5032200;28;20722;-72
2021/12/31 04:24:03;;;;;;;3.25;0.93;;;;;;;18.54;57.03;101632.94;5016158;28;20044;-72
2021/12/31 04:26:28;;;;;;;4.03;1.33;;;;;;;18.50;57.13;101627.00;5050184;28;20524;-72
2021/12/31 04:28:54;;;;;;;4.18;1.20;;;;;;;18.51;57.13;101612.75;5049857;28;20124;-72
2021/12/31 04:31:19;;;;;;;3.72;1.27;;;;;;;18.47;57.35;101617.47;5049558;28;20511;-72
2021/12/31 04:33:45;;;;;;;4.38;1.20;;;;;;;18.49;57.16;101598.75;5046328;28;20509;-72
2021/12/31 04:36:11;;;;;;;4.70;1.33;;;;;;;18.51;56.75;101591.50;5029223;28;20053;-72
2021/12/31 04:38:37;;;;;;;4.78;1.25;;;;;;;18.52;56.99;101590.53;5030448;28;20853;-72
2021/12/31 04:41:03;;;;;;;5.13;1.50;;;;;;;18.52;57.04;101592.34;5029730;28;20123;-72
2021/12/31 04:43:28;;;;;;;3.85;1.02;;;;;;;18.51;57.05;101602.13;5030231;28;20029;-72
2021/12/31 04:45:54;;;;;;;4.00;1.35;;;;;;;18.49;57.10;101588.13;5012373;28;20449;-72
2021/12/31 04:48:19;;;;;;;3.45;1.20;;;;;;;18.49;56.91;101583.66;5029286;28;20041;-72
2021/12/31 04:50:44;;;;;;;4.30;1.20;;;;;;;18.48;57.29;101584.59;5029909;28;20136;-72
2021/12/31 04:53:10;;;;;;;4.22;1.40;;;;;;;18.47;56.89;101580.25;5011680;28;20485;-71
2021/12/31 04:55:35;;;;;;;3.58;1.10;;;;;;;18.49;56.95;101574.84;5029774;28;20528;-72
2021/12/31 04:58:01;;;;;;;1.88;0.90;;;;;;;18.46;57.13;101578.59;5029399;28;20493;-71
2021/12/31 05:00:26;;;;;;;3.50;1.20;;;;;;;18.47;57.30;101571.44;5023625;28;20121;-72
2021/12/31 05:02:51;;;;;;;3.58;1.05;;;;;;;18.49;56.86;101569.53;5029712;28;20501;-71
2021/12/31 05:05:17;;;;;;;3.63;1.17;;;;;;;18.46;56.62;101588.38;5029151;28;20072;-71
2021/12/31 05:07:42;;;;;;;3.30;1.00;;;;;;;18.46;56.69;101573.28;5029785;28;20485;-72
2021/12/31 05:10:08;;;;;;;4.15;1.10;;;;;;;18.45;57.13;101581.34;5028953;28;20041;-72
2021/12/31 05:12:36;;;;;;;3.55;1.10;;;;;;;18.46;56.58;101575.09;5011855;28;20044;-72
2021/12/31 05:15:05;;;;;;;3.80;1.10;;;;;;;18.46;56.57;101583.91;5029300;28;20049;-71
2021/12/31 05:17:31;;;;;;;3.00;1.10;;;;;;;18.43;56.85;101585.97;5029621;28;20122;-72
2021/12/31 05:19:56;;;;;;;4.70;1.13;;;;;;;18.40;57.13;101584.38;5029511;28;20531;-72
2021/12/31 05:22:22;;;;;;;3.22;1.02;;;;;;;18.41;56.75;101598.50;4994911;28;20555;-72
2021/12/31 05:24:47;;;;;;;2.90;1.00;;;;;;;18.41;56.54;101570.13;5011555;28;20072;-72
2021/12/31 05:27:13;;;;;;;5.13;1.25;;;;;;;18.35;56.93;101565.28;5028954;28;20057;-72
2021/12/31 05:29:38;;;;;;;4.28;1.55;;;;;;;18.39;56.87;101579.16;5028335;28;20216;-72
2021/12/31 05:32:04;;;;;;;2.95;1.00;;;;;;;18.39;57.02;101584.47;5010353;28;20135;-71
2021/12/31 05:34:29;;;;;;;2.72;1.05;;;;;;;18.41;56.69;101587.88;5038178;28;20091;-72
2021/12/31 05:36:55;;;;;;;2.83;0.98;;;;;;;18.42;57.15;101586.91;5049163;28;20037;-72
2021/12/31 05:39:20;;;;;;;3.97;1.02;;;;;;;18.39;57.19;101569.38;5030375;28;20528;-72
2021/12/31 05:41:46;;;;;;;3.75;1.40;;;;;;;18.39;56.55;101572.03;5048861;28;20487;-72
2021/12/31 05:44:11;;;;;;;3.78;1.10;;;;;;;18.40;56.62;101563.13;5014007;28;20128;-71
2021/12/31 05:46:37;;;;;;;4.63;1.23;;;;;;;18.41;56.67;101558.66;5030591;28;20116;-72
2021/12/31 05:49:03;;;;;;;2.80;1.10;;;;;;;18.39;56.56;101565.88;5030475;28;20051;-72
2021/12/31 05:51:28;;;;;;;2.55;1.05;;;;;;;18.41;56.60;101563.97;5049201;28;20037;-72
2021/12/31 05:53:54;;;;;;;3.28;1.20;;;;;;;18.42;56.80;101568.28;5048892;28;20102;-72
2021/12/31 05:56:19;;;;;;;2.55;1.13;;;;;;;18.40;56.72;101567.59;5048176;28;20047;-72
2021/12/31 05:58:45;;;;;;;5.28;1.40;;;;;;;18.42;57.00;101584.25;5027885;28;20113;-72
2021/12/31 06:01:10;;;;;;;3.13;1.05;;;;;;;18.43;56.85;101568.19;5010677;28;20163;-72
2021/12/31 06:03:36;;;;;;;3.50;1.10;;;;;;;18.45;56.60;101576.88;5046142;28;20492;-72
2021/12/31 06:06:01;;;;;;;2.03;0.90;;;;;;;18.50;56.66;101571.22;5030274;28;20529;-71
2021/12/31 06:08:27;;;;;;;3.38;1.13;;;;;;;18.56;56.78;101580.50;5048428;28;20041;-72
2021/12/31 06:10:52;;;;;;;3.88;0.93;;;;;;;18.57;56.97;101576.88;5048042;28;20045;-72
2021/12/31 06:13:18;;;;;;;2.42;1.00;;;;;;;18.58;56.74;101582.06;5030003;28;20479;-71
2021/12/31 06:15:44;;;;;;;3.65;1.10;;;;;;;18.62;56.09;101566.75;5048278;28;20065;-72
2021/12/31 06:18:10;;;;;;;3.88;1.10;;;;;;;18.71;55.93;101572.16;5030034;28;20091;-72
2021/12/31 06:20:35;;;;;;;2.28;1.13;;;;;;;18.76;56.24;101571.81;5048243;28;20476;-72
2021/12/31 06:23:01;;;;;;;2.88;0.98;;;;;;;18.80;56.47;101564.44;5029986;28;20420;-72
2021/12/31 06:25:26;;;;;;;2.25;0.70;;;;;;;18.81;56.26;101568.81;5048327;28;20481;-72
2021/12/31 06:27:52;;;;;;;2.50;0.85;;;;;;;18.82;55.49;101551.88;5014385;28;20065;-72
2021/12/31 06:30:18;;;;;;;2.55;0.85;;;;;;;18.84;55.82;101552.63;5047401;28;20045;-72
2021/12/31 06:32:43;;;;;;;3.70;1.13;;;;;;;18.86;55.50;101550.66;5048098;28;20063;-72
2021/12/31 06:35:09;;;;;;;2.35;0.80;;;;;;;18.86;55.80;101556.81;5047625;28;20746;-71
2021/12/31 06:37:34;;;;;;;2.25;0.95;;;;;;;18.88;55.60;101556.72;5048194;28;20401;-71
2021/12/31 06:40:04;;;;;;;4.85;1.00;;;;;;;18.93;54.62;101543.91;5045615;28;20076;-72
2021/12/31 06:42:29;;;;;;;4.07;1.05;;;;;;;18.97;53.99;101547.16;5009552;28;20040;-71
2021/12/31 06:44:55;;;;;;;2.97;0.98;;;;;;;18.99;55.17;101531.91;5037902;28;20041;-72
2021/12/31 06:47:20;;;;;;;2.90;1.10;;;;;;;19.00;53.74;101539.75;5033305;28;20084;-71
2021/12/31 06:49:46;;;;;;;4.75;0.90;;;;;;;19.03;54.18;101534.19;5026331;28;20037;-71
2021/12/31 06:52:11;;;;;;;2.75;0.73;;;;;;;19.02;54.47;101537.84;5044363;28;20037;-71
2021/12/31 06:54:37;;;;;;;3.45;1.05;;;;;;;19.04;53.96;101549.16;5029989;28;20511;-70
2021/12/31 06:57:03;;;;;;;6.07;1.20;;;;;;;19.08;54.07;101542.63;5009590;28;20628;-71
2021/12/31 06:59:29;;;;;;;3.85;1.08;;;;;;;19.09;54.04;101544.34;4997321;28;20061;-72
2021/12/31 07:01:55;;;;;;;4.40;0.80;;;;;;;19.09;55.00;101554.97;5032064;28;20158;-71
2021/12/31 07:04:20;;;;;;;3.28;0.85;;;;;;;19.10;54.06;101556.66;4997594;28;20049;-71
2021/12/31 07:06:46;;;;;;;5.80;1.00;;;;;;;19.12;54.43;101562.69;5034140;28;20443;-71
2021/12/31 07:09:11;;;;;;;5.20;0.90;;;;;;;19.12;54.54;101560.03;5025154;28;20045;-71
2021/12/31 07:11:37;;;;;;;3.53;0.98;;;;;;;19.13;54.81;101561.72;5032504;28;20042;-71
2021/12/31 07:14:02;;;;;;;1.58;0.77;;;;;;;19.13;54.54;101580.34;5051281;28;20033;-70
2021/12/31 07:16:28;;;;;;;3.47;0.90;;;;;;;19.15;54.66;101566.94;5028164;28;20061;-71
2021/12/31 07:18:53;;;;;;;2.92;0.90;;;;;;;19.14;54.10;101582.03;5041535;28;20182;-71
2021/12/31 07:21:19;;;;;;;3.42;1.00;;;;;;;19.17;54.26;101579.09;5040839;28;20077;-71
2021/12/31 07:23:44;;;;;;;2.40;0.82;;;;;;;19.17;54.37;101562.31;4997556;28;20486;-71
2021/12/31 07:26:09;;;;;;;7.07;1.00;;;;;;;19.18;55.13;101579.97;4996886;28;20073;-71
2021/12/31 07:28:35;;;;;;;4.75;1.05;;;;;;;19.18;54.83;101569.34;5024757;28;20045;-71
2021/12/31 07:31:00;;;;;;;2.20;0.80;;;;;;;19.19;55.37;101584.31;5011150;28;20514;-71
2021/12/31 07:33:26;;;;;;;2.40;0.80;;;;;;;19.19;55.07;101573.69;4996492;28;20522;-72
2021/12/31 07:35:51;;;;;;;3.22;0.80;;;;;;;19.23;55.08;101591.06;5035213;28;20033;-71
2021/12/31 07:38:20;;;;;;;4.60;1.10;;;;;;;19.25;55.38;101588.31;5014083;28;20332;-72
2021/12/31 07:40:46;;;;;;;3.03;0.90;;;;;;;19.26;55.23;101571.38;5031157;28;20045;-70
2021/12/31 07:43:12;;;;;;;3.30;0.90;;;;;;;19.28;54.99;101580.06;5013310;28;20052;-71
2021/12/31 07:45:38;;;;;;;3.15;0.82;;;;;;;19.29;55.57;101579.09;5031414;28;20489;-71
2021/12/31 07:48:04;;;;;;;3.22;1.02;;;;;;;19.30;54.49;101586.09;5037255;28;20091;-71
2021/12/31 07:50:29;;;;;;;4.38;0.93;;;;;;;19.29;55.08;101587.06;5029361;28;20476;-71
2021/12/31 07:52:55;;;;;;;4.53;0.90;;;;;;;19.30;56.21;101572.78;5030903;28;20053;-71
2021/12/31 07:55:20;;;;;;;4.50;0.95;;;;;;;19.31;55.58;101579.81;5029949;28;20056;-71
2021/12/31 07:57:46;;;;;;;6.85;1.17;;;;;;;19.32;55.61;101579.69;5030833;28;20068;-72
2021/12/31 08:00:11;;;;;;;4.65;1.00;;;;;;;19.33;55.85;101588.50;5030584;28;20080;-71
2021/12/31 08:02:37;;;;;;;12.02;1.83;;;;;;;19.32;57.91;101581.50;5030777;28;20117;-70
2021/12/31 08:05:03;;;;;;;5.55;1.10;;;;;;;19.27;55.81;101589.84;5030013;28;20037;-70
2021/12/31 08:07:28;;;;;;;8.95;1.25;;;;;;;19.24;54.98;101598.09;5013156;28;20180;-70
2021/12/31 08:09:54;;;;;;;7.55;1.73;;;;;;;19.24;55.44;101597.22;4998576;28;20037;-70
2021/12/31 08:12:19;;;;;;;6.88;1.10;;;;;;;19.24;54.89;101605.22;5019614;28;20171;-70
2021/12/31 08:14:44;;;;;;;8.30;1.38;;;;;;;19.25;56.19;101606.94;5030215;28;20088;-70
2021/12/31 08:17:10;;;;;;;5.90;0.82;;;;;;;19.22;55.15;101613.34;5027527;28;20828;-70
2021/12/31 08:19:35;;;;;;;9.18;1.17;;;;;;;19.23;55.31;101630.13;5040294;28;20064;-68
2021/12/31 08:22:01;;;;;;;9.70;1.30;;;;;;;19.18;55.56;101612.75;5030110;28;20532;-70
2021/12/31 08:24:26;;;;;;;9.82;1.70;;;;;;;19.19;56.88;101616.25;5030478;28;20674;-71
2021/12/31 08:26:52;;;;;;;9.95;1.30;;;;;;;19.16;57.05;101604.03;5030541;28;20072;-71
2021/12/31 08:29:18;;;;;;;5.60;1.40;;;;;;;19.14;57.13;101605.13;5029961;28;20077;-72
2021/12/31 08:31:44;;;;;;;6.50;1.10;;;;;;;19.15;57.26;101589.06;5017713;28;20404;-72
2021/12/31 08:34:09;;;;;;;8.30;1.33;;;;;;;19.13;56.38;101593.63;5021894;28;20049;-67
2021/12/31 08:36:35;;;;;;;5.80;1.42;;;;;;;19.13;56.06;101592.81;5016713;28;20049;-71
2021/12/31 08:39:02;;;;;;;4.35;1.00;;;;;;;19.12;56.33;101589.31;5034669;28;20125;-71
2021/12/31 08:41:28;;;;;;;4.43;1.13;;;;;;;19.12;57.33;101599.94;5031880;28;20465;-71
2021/12/31 08:43:53;;;;;;;6.03;1.10;;;;;;;19.10;56.41;101601.88;5039994;28;20033;-71
2021/12/31 08:46:19;;;;;;;4.05;1.00;;;;;;;19.14;55.62;101599.81;5022263;28;20445;-72
2021/12/31 08:48:44;;;;;;;7.03;1.58;;;;;;;19.15;56.53;101613.00;5029197;28;20046;-72
2021/12/31 08:51:09;;;;;;;4.35;1.02;;;;;;;19.19;55.08;101618.91;5016401;28;20120;-73
2021/12/31 08:53:35;;;;;;;5.72;1.10;;;;;;;19.19;55.67;101614.44;5011046;28;20037;-72
2021/12/31 08:56:00;;;;;;;3.03;0.80;;;;;;;19.19;56.56;101617.09;5011014;28;20057;-71
2021/12/31 08:58:26;;;;;;;4.38;1.08;;;;;;;19.20;56.56;101615.25;5011060;28;20038;-70
2021/12/31 09:00:51;;;;;;;4.13;1.10;;;;;;;19.23;55.60;101603.53;5029140;28;20042;-71
2021/12/31 09:03:17;;;;;;;7.05;1.10;;;;;;;19.17;57.00;101602.22;5030209;28;20083;-71
2021/12/31 09:05:42;;;;;;;4.88;1.20;;;;;;;19.16;56.74;101590.72;5030282;28;20041;-70
2021/12/31 09:08:08;;;;;;;4.82;1.00;;;;;;;19.15;56.09;101602.34;5030438;28;20099;-70
2021/12/31 09:10:33;;;;;;;5.40;1.17;;;;;;;19.21;55.42;101605.47;5029478;28;20524;-70
2021/12/31 09:12:59;;;;;;;3.58;1.00;;;;;;;19.21;55.07;101602.81;5012393;28;20059;-70
2021/12/31 09:15:24;;;;;;;5.78;0.90;;;;;;;19.13;56.26;101609.59;5033782;28;20521;-71
2021/12/31 09:17:49;;;;;;;7.00;1.10;;;;;;;19.14;56.71;101611.28;5044703;28;20128;-71
2021/12/31 09:20:15;;;;;;;4.28;1.00;;;;;;;19.17;57.26;101620.84;5014242;28;20069;-71
2021/12/31 09:22:41;;;;;;;5.63;1.10;;;;;;;19.18;56.90;101638.50;4993339;28;20053;-71
2021/12/31 09:25:06;;;;;;;5.30;1.05;;;;;;;19.18;56.89;101626.03;5031266;28;20424;-70
2021/12/31 09:27:32;;;;;;;5.43;1.08;;;;;;;19.20;55.12;101639.22;5032175;28;20051;-71
2021/12/31 09:29:57;;;;;;;6.38;1.10;;;;;;;19.22;56.22;101639.09;5010469;28;20045;-72
2021/12/31 09:32:23;;;;;;;4.82;1.02;;;;;;;19.19;57.32;101645.50;5028793;28;21052;-72
2021/12/31 09:34:48;;;;;;;4.80;0.90;;;;;;;19.14;56.04;101642.34;5014464;28;20095;-71
2021/12/31 09:37:15;;;;;;;5.05;1.10;;;;;;;19.18;56.33;101646.47;5014200;28;20526;-80
2021/12/31 09:39:41;;;;;;;4.68;1.35;;;;;;;19.18;56.21;101623.38;5031937;28;20044;-71
2021/12/31 09:42:07;;;;;;;4.82;1.13;;;;;;;19.23;56.51;101651.41;5010615;28;20042;-69
2021/12/31 09:44:33;;;;;;;4.38;0.90;;;;;;;19.23;56.60;101646.94;5029435;28;20076;-72
2021/12/31 09:46:58;;;;;;;4.07;0.90;;;;;;;19.24;56.87;101683.25;5028394;28;20040;-72
2021/12/31 09:49:24;;;;;;;4.97;1.00;;;;;;;19.26;54.71;101689.25;5032851;28;20116;-72
2021/12/31 09:51:49;;;;;;;6.97;1.00;;;;;;;19.24;57.04;101663.75;5030401;28;20124;-71
2021/12/31 09:54:17;;;;;;;4.90;0.80;;;;;;;19.24;55.49;101679.69;5008468;28;20049;-71
2021/12/31 09:56:42;;;;;;;7.07;0.90;;;;;;;19.24;54.96;101680.56;5029839;28;20045;-71
2021/12/31 09:59:08;;;;;;;3.97;1.00;;;;;;;19.25;56.27;101676.09;5016389;28;20417;-71
2021/12/31 10:01:43;;;;;;;4.43;0.82;;;;;;;19.21;55.42;101642.72;5043607;28;20040;-72
2021/12/31 10:04:09;;;;;;;5.38;1.20;;;;;;;19.21;55.03;101624.97;5032364;28;20128;-71
2021/12/31 10:06:34;;;;;;;6.07;1.10;;;;;;;19.23;54.72;101636.31;5048247;28;20040;-72
2021/12/31 10:09:02;;;;;;;4.57;0.90;;;;;;;19.26;55.44;101651.16;5016400;28;20053;-73
2021/12/31 10:11:27;;;;;;;6.10;0.80;;;;;;;19.24;55.33;101661.09;5009639;28;20776;-72
2021/12/31 10:13:57;;;;;;;6.80;1.33;;;;;;;19.24;55.59;101653.09;5027539;28;20037;-72
2021/12/31 10:16:27;;;;;;;4.30;0.90;;;;;;;19.25;55.09;101642.34;5030303;28;20048;-69
2021/12/31 10:19:12;;;;;;;5.63;1.13;;;;;;;19.26;54.84;101629.88;5019626;28;20099;-72
2021/12/31 10:21:50;;;;;;;3.67;1.10;;;;;;;19.27;55.48;101626.25;5046648;28;20033;-72
2021/12/31 10:24:34;;;;;;;3.13;0.85;;;;;;;19.29;56.24;101619.00;5009859;28;20418;-71
2021/12/31 10:27:02;;;;;;;3.08;1.05;;;;;;;19.28;54.71;101604.00;5028094;28;20041;-71
2021/12/31 10:29:28;;;;;;;3.17;1.15;;;;;;;19.29;54.38;101579.09;5027653;28;20132;-71
2021/12/31 10:31:53;;;;;;;3.20;1.58;;;;;;;19.29;54.32;101565.78;5010374;28;20045;-72
2021/12/31 10:34:35;;;;;;;2.88;0.70;;;;;;;19.29;54.80;101563.97;5027275;28;20041;-71
2021/12/31 10:37:22;;;;;;;4.05;0.63;;;;;;;19.29;54.22;101592.41;5033829;28;20121;-72
2021/12/31 10:39:58;;;;;;;5.45;1.00;;;;;;;19.29;55.26;101611.84;5016419;28;20053;-72
2021/12/31 10:42:33;;;;;;;4.65;1.10;;;;;;;19.31;55.17;101625.06;5047394;28;20075;-72
2021/12/31 10:45:00;;;;;;;6.90;1.10;;;;;;;19.25;56.06;101639.69;5037151;28;20086;-72
2021/12/31 10:47:37;;;;;;;4.28;0.80;;;;;;;19.28;54.70;101628.81;5027637;28;20154;-71
2021/12/31 10:50:03;;;;;;;3.50;0.73;;;;;;;19.29;55.43;101637.63;4999123;28;20041;-72
2021/12/31 10:52:44;;;;;;;4.32;0.90;;;;;;;19.28;56.26;101647.44;5028028;28;20091;-72
2021/12/31 10:55:21;;;;;;;3.95;1.20;;;;;;;19.31;55.45;101633.03;5027363;28;20505;-72
2021/12/31 10:57:50;;;;;;;2.67;0.80;;;;;;;19.31;54.68;101627.72;5007453;28;20051;-72
2021/12/31 11:00:18;;;;;;;4.10;1.00;;;;;;;19.30;56.61;101626.00;5047155;28;20039;-72
2021/12/31 11:02:43;;;;;;;5.90;1.48;;;;;;;19.29;56.37;101629.63;5036312;28;20473;-72
2021/12/31 11:05:10;;;;;;;3.08;0.88;;;;;;;19.31;54.99;101630.38;5026901;28;20033;-72
2021/12/31 11:07:35;;;;;;;3.17;1.00;;;;;;;19.30;55.68;101620.69;5014749;28;20038;-72
2021/12/31 11:10:01;;;;;;;7.97;1.30;;;;;;;19.28;56.50;101623.47;4993154;28;20049;-69
2021/12/31 11:12:26;;;;;;;6.07;1.10;;;;;;;19.24;57.22;101630.03;5009932;28;20046;-72
2021/12/31 11:14:53;;;;;;;5.32;1.20;;;;;;;19.26;56.65;101629.88;5009768;28;20068;-69
2021/12/31 11:17:18;;;;;;;4.38;1.10;;;;;;;19.26;56.90;101613.94;5046026;28;20041;-72
2021/12/31 11:19:45;;;;;;;7.15;1.33;;;;;;;19.27;55.80;101624.44;5015179;28;20474;-73
2021/12/31 11:22:13;;;;;;;3.88;1.00;;;;;;;19.30;54.95;101631.31;4994000;28;20034;-72
2021/12/31 11:24:38;;;;;;;7.32;1.52;;;;;;;19.30;56.15;101626.00;5028821;28;20040;-72